Air Navigation Services of Czech Republic
Airport: LKKB Updated:  25.07.2017 12:08:11  UTC
 METAR LKKB 25.07. 12:00 ...
METAR LKKB 251200Z 24013KT 9999 SCT035 BKN046 17/10 Q1004 NOSIG =
 TAF LKKB 25.07. 11:00 ...
TAF LKKB 251100Z 2512/2612 25012KT 9999 SCT040      TEMPO 2512/2522 25016G26KT 9999 BKN035      TEMPO 2603/2612 8000 SHRA SCT015 BKN025=